Time;durP1;ratioP1;P1;durP2;ratioP2;P2;SDS_P1;SDS_P2;PMS_P1;PMS_P2;Temp;Humidity;BMP_temperature;BMP_pressure;BME280_temperature;BME280_humidity;BME280_pressure;Samples;Min_cycle;Max_cycle;Signal;HPM_P1;HPM_P2
2022/05/22 00:01:25;;;;;;;2.40;1.20;;;14.90;99.90;;;;;;5046077;28;20227;-84
2022/05/22 00:03:52;;;;;;;4.50;1.60;;;14.90;99.90;;;;;;5047480;28;20296;-84
2022/05/22 00:06:20;;;;;;;2.50;1.30;;;14.40;99.90;;;;;;5046740;28;20726;-84
2022/05/22 00:08:47;;;;;;;3.10;1.50;;;14.50;99.90;;;;;;5046455;28;20231;-84
2022/05/22 00:11:27;;;;;;;6.70;1.57;;;14.40;99.90;;;;;;5047390;28;20339;-84
2022/05/22 00:13:55;;;;;;;3.33;1.40;;;14.10;99.90;;;;;;5047161;28;20219;-77
2022/05/22 00:16:40;;;;;;;3.20;1.40;;;14.20;99.90;;;;;;5046731;28;20295;-77
2022/05/22 00:19:09;;;;;;;3.77;1.60;;;14.00;99.90;;;;;;5048227;28;20212;-85
2022/05/22 00:21:38;;;;;;;3.33;1.30;;;13.90;99.90;;;;;;5046416;28;20706;-85
2022/05/22 00:24:06;;;;;;;3.63;1.37;;;13.80;99.90;;;;;;5052053;28;20299;-88
2022/05/22 00:26:33;;;;;;;4.53;1.50;;;13.80;99.90;;;;;;5053482;28;20708;-88
2022/05/22 00:29:01;;;;;;;1.43;1.30;;;13.90;99.90;;;;;;5053034;28;20203;-87
2022/05/22 00:31:28;;;;;;;3.93;1.40;;;13.90;99.90;;;;;;5046946;28;20236;-88
2022/05/22 00:33:56;;;;;;;3.90;1.43;;;13.80;99.90;;;;;;5034736;28;20706;-87
2022/05/22 00:36:27;;;;;;;2.00;1.07;;;14.00;99.90;;;;;;5033466;28;20201;-87
2022/05/22 00:38:55;;;;;;;3.30;1.43;;;14.20;99.90;;;;;;5047347;28;20659;-88
2022/05/22 00:41:23;;;;;;;8.77;1.90;;;14.10;99.90;;;;;;5053123;28;20746;-88
2022/05/22 00:43:53;;;;;;;1.63;1.43;;;13.90;99.90;;;;;;5051089;28;20278;-90
2022/05/22 00:46:27;;;;;;;2.47;1.37;;;13.70;99.90;;;;;;5052903;28;20205;-86
2022/05/22 00:49:02;;;;;;;2.17;1.30;;;13.70;99.90;;;;;;5042160;28;20678;-86
2022/05/22 00:51:37;;;;;;;2.37;1.30;;;13.60;99.90;;;;;;5051713;28;20203;-87
2022/05/22 00:54:11;;;;;;;4.80;1.50;;;13.60;99.90;;;;;;5052327;28;20242;-87
2022/05/22 00:56:43;;;;;;;3.23;1.47;;;13.50;99.90;;;;;;5051404;28;20579;-87
2022/05/22 00:59:16;;;;;;;4.87;1.57;;;13.70;99.90;;;;;;5052758;28;20196;-86
2022/05/22 01:01:46;;;;;;;3.70;1.43;;;13.80;99.90;;;;;;5050262;28;20236;-87
2022/05/22 01:04:22;;;;;;;5.10;1.30;;;14.00;99.90;;;;;;5052157;28;20204;-88
2022/05/22 01:06:51;;;;;;;2.60;1.20;;;14.00;99.90;;;;;;5051959;28;20207;-88
2022/05/22 01:09:20;;;;;;;1.63;1.20;;;13.90;99.90;;;;;;5051684;28;20218;-89
2022/05/22 01:11:49;;;;;;;2.03;1.10;;;13.90;99.90;;;;;;5052357;28;20197;-86
2022/05/22 01:14:22;;;;;;;1.50;1.00;;;13.70;99.90;;;;;;5048757;28;20204;-86
2022/05/22 01:16:51;;;;;;;1.33;1.20;;;13.80;99.90;;;;;;5050186;28;20654;-86
2022/05/22 01:19:23;;;;;;;4.07;1.37;;;13.80;99.90;;;;;;5035944;28;20584;-86
2022/05/22 01:21:54;;;;;;;3.13;1.13;;;13.70;99.90;;;;;;5050549;28;20232;-90
2022/05/22 01:24:21;;;;;;;1.47;1.07;;;13.80;99.90;;;;;;5052126;28;20203;-88
2022/05/22 01:26:50;;;;;;;2.77;1.30;;;13.60;99.90;;;;;;5051709;28;20215;-89
2022/05/22 01:29:17;;;;;;;4.53;1.50;;;13.50;99.90;;;;;;5049961;28;20203;-77
2022/05/22 01:31:44;;;;;;;2.93;1.20;;;13.50;99.90;;;;;;5043518;28;20218;-77
2022/05/22 01:34:12;;;;;;;5.07;2.00;;;13.60;99.90;;;;;;5048750;28;20658;-77
2022/05/22 01:36:39;;;;;;;3.50;1.30;;;13.70;99.90;;;;;;5048856;28;20204;-78
2022/05/22 01:39:08;;;;;;;3.87;1.50;;;13.80;99.90;;;;;;5049293;28;20212;-78
2022/05/22 01:41:35;;;;;;;4.13;1.23;;;13.80;99.90;;;;;;5049033;28;20232;-79
2022/05/22 01:44:01;;;;;;;5.30;1.47;;;14.00;99.90;;;;;;5049527;28;20434;-86
2022/05/22 01:46:28;;;;;;;5.47;1.77;;;13.80;99.90;;;;;;5049447;28;20204;-86
2022/05/22 01:48:56;;;;;;;2.30;1.30;;;13.90;99.90;;;;;;5049167;28;20210;-85
2022/05/22 01:51:36;;;;;;;4.17;1.17;;;14.00;99.90;;;;;;5032981;28;20208;-86
2022/05/22 01:54:03;;;;;;;3.60;1.40;;;13.90;99.90;;;;;;5050666;28;20274;-87
2022/05/22 01:56:33;;;;;;;4.97;1.47;;;13.90;99.90;;;;;;5051938;28;20200;-86
2022/05/22 01:59:00;;;;;;;2.47;1.30;;;14.00;99.90;;;;;;5049573;28;20201;-86
2022/05/22 02:01:27;;;;;;;3.97;1.23;;;13.80;99.90;;;;;;5052198;28;20285;-87
2022/05/22 02:03:54;;;;;;;4.00;1.50;;;13.90;99.90;;;;;;5051452;28;20273;-85
2022/05/22 02:06:20;;;;;;;4.13;1.40;;;13.90;99.90;;;;;;5052188;28;20204;-85
2022/05/22 02:08:46;;;;;;;3.80;1.77;;;14.00;99.90;;;;;;5051389;28;20838;-86
2022/05/22 02:11:25;;;;;;;4.40;1.30;;;14.10;99.90;;;;;;5050608;28;20282;-85
2022/05/22 02:13:53;;;;;;;2.53;1.50;;;14.10;99.90;;;;;;5049917;28;20210;-85
2022/05/22 02:16:20;;;;;;;5.90;1.67;;;14.00;99.90;;;;;;5037879;28;20200;-84
2022/05/22 02:18:47;;;;;;;4.40;1.43;;;13.70;99.90;;;;;;5048923;28;20204;-83
2022/05/22 02:21:20;;;;;;;3.10;1.60;;;13.90;99.90;;;;;;5049099;28;20281;-83
2022/05/22 02:23:46;;;;;;;4.03;1.43;;;13.80;99.90;;;;;;5048637;28;20208;-83
2022/05/22 02:26:22;;;;;;;4.57;1.40;;;13.70;99.90;;;;;;5048341;28;20667;-83
2022/05/22 02:28:48;;;;;;;2.73;1.47;;;13.70;99.90;;;;;;5048861;28;20207;-82
2022/05/22 02:31:27;;;;;;;1.67;1.27;;;13.70;99.90;;;;;;5049076;28;20204;-82
2022/05/22 02:33:54;;;;;;;2.50;1.43;;;13.70;99.90;;;;;;5048066;28;20618;-81
2022/05/22 02:36:25;;;;;;;2.17;1.40;;;13.70;99.90;;;;;;5048431;28;20211;-81
2022/05/22 02:38:52;;;;;;;3.30;1.60;;;13.80;99.90;;;;;;5047588;28;20200;-85
2022/05/22 02:41:25;;;;;;;2.53;1.30;;;13.80;99.90;;;;;;5048937;28;20226;-82
2022/05/22 02:43:52;;;;;;;5.60;1.10;;;13.70;99.90;;;;;;5049382;28;20591;-82
2022/05/22 02:46:32;;;;;;;3.93;1.40;;;13.60;99.90;;;;;;5048574;28;20255;-82
2022/05/22 02:48:59;;;;;;;3.60;1.43;;;13.40;99.90;;;;;;5044038;28;20218;-84
2022/05/22 02:51:26;;;;;;;4.00;1.53;;;13.10;99.90;;;;;;5048706;28;20216;-83
2022/05/22 02:53:53;;;;;;;3.53;1.70;;;13.10;99.90;;;;;;5047899;28;20250;-83
2022/05/22 02:56:21;;;;;;;3.40;1.33;;;13.10;99.90;;;;;;5048013;28;20234;-85
2022/05/22 02:58:48;;;;;;;3.27;1.47;;;13.00;99.90;;;;;;5049396;28;20735;-87
2022/05/22 03:01:26;;;;;;;4.13;1.40;;;13.00;99.90;;;;;;5049687;28;20247;-84
2022/05/22 03:03:56;;;;;;;2.80;1.13;;;12.90;99.90;;;;;;5048760;28;20223;-83
2022/05/22 03:06:41;;;;;;;3.33;1.33;;;13.00;99.90;;;;;;5048684;28;20300;-84
2022/05/22 03:09:09;;;;;;;2.17;1.60;;;12.80;99.90;;;;;;5047474;28;20666;-83
2022/05/22 03:11:37;;;;;;;4.23;1.70;;;12.90;99.90;;;;;;5046564;28;20244;-84
2022/05/22 03:14:07;;;;;;;5.73;1.90;;;13.00;99.90;;;;;;5049460;28;20207;-86
2022/05/22 03:16:34;;;;;;;6.40;1.37;;;12.90;99.90;;;;;;5034927;28;20201;-86
2022/05/22 03:19:03;;;;;;;1.87;1.20;;;13.00;99.90;;;;;;5046980;28;20200;-88
2022/05/22 03:21:30;;;;;;;6.93;2.07;;;12.80;99.90;;;;;;5050612;28;20208;-87
2022/05/22 03:23:56;;;;;;;5.43;1.60;;;12.70;99.90;;;;;;5047180;28;20357;-87
2022/05/22 03:26:35;;;;;;;4.03;1.73;;;12.80;99.90;;;;;;5050353;28;20204;-88
2022/05/22 03:29:04;;;;;;;4.47;1.43;;;13.00;99.90;;;;;;5050503;28;20257;-87
2022/05/22 03:31:31;;;;;;;5.63;1.60;;;12.80;99.90;;;;;;5048306;28;20203;-87
2022/05/22 03:33:58;;;;;;;4.83;1.57;;;13.00;99.90;;;;;;5050481;28;20204;-87
2022/05/22 03:36:38;;;;;;;5.07;1.67;;;13.10;99.90;;;;;;5049054;28;20699;-88
2022/05/22 03:39:05;;;;;;;1.70;1.33;;;13.10;99.90;;;;;;5048039;28;20603;-81
2022/05/22 03:41:32;;;;;;;2.03;1.30;;;13.10;99.90;;;;;;5047421;28;20200;-81
2022/05/22 03:43:59;;;;;;;2.43;1.47;;;13.10;99.90;;;;;;5046752;28;20227;-81
2022/05/22 03:46:25;;;;;;;4.63;1.33;;;13.10;99.90;;;;;;5047396;28;20196;-81
2022/05/22 03:48:52;;;;;;;4.83;1.60;;;13.20;99.90;;;;;;5046804;28;20219;-81
2022/05/22 03:51:19;;;;;;;3.63;1.73;;;13.20;99.90;;;;;;5046603;28;20223;-82
2022/05/22 03:53:47;;;;;;;4.10;1.50;;;13.30;99.90;;;;;;5045845;28;20939;-87
2022/05/22 03:56:25;;;;;;;3.77;1.50;;;13.30;99.90;;;;;;5047770;28;20216;-75
2022/05/22 03:58:52;;;;;;;4.43;1.70;;;13.30;99.90;;;;;;5047218;28;20208;-75
2022/05/22 04:01:38;;;;;;;3.50;1.40;;;13.40;99.90;;;;;;5049669;28;20649;-73
2022/05/22 04:04:05;;;;;;;3.73;1.37;;;13.50;99.90;;;;;;5050044;28;20686;-73
2022/05/22 04:06:31;;;;;;;3.73;1.33;;;13.50;99.90;;;;;;5050389;28;20662;-74
2022/05/22 04:08:59;;;;;;;3.63;1.47;;;13.50;99.90;;;;;;5049041;28;20212;-74
2022/05/22 04:11:26;;;;;;;4.60;1.40;;;13.40;99.90;;;;;;5047141;28;20236;-73
2022/05/22 04:13:53;;;;;;;4.00;1.30;;;13.40;99.90;;;;;;5049306;28;20262;-74
2022/05/22 04:16:26;;;;;;;3.03;1.67;;;13.40;99.90;;;;;;5050600;28;20825;-74
2022/05/22 04:18:52;;;;;;;3.83;2.30;;;13.20;99.90;;;;;;5049452;28;20254;-73
2022/05/22 04:21:31;;;;;;;4.07;1.90;;;13.20;99.90;;;;;;5050517;28;20235;-73
2022/05/22 04:26:43;;;;;;;3.27;2.03;;;12.90;99.90;;;;;;5048045;28;20605;-74
2022/05/22 04:29:10;;;;;;;3.13;1.70;;;13.00;99.90;;;;;;5043303;28;20204;-75
2022/05/22 04:31:37;;;;;;;5.37;2.27;;;12.80;99.90;;;;;;5047130;28;20208;-74
2022/05/22 04:34:03;;;;;;;5.87;1.90;;;12.60;99.90;;;;;;5044525;28;20273;-77
2022/05/22 04:36:30;;;;;;;2.27;1.70;;;12.60;99.90;;;;;;5049801;28;20211;-74
2022/05/22 04:38:58;;;;;;;5.87;1.70;;;12.60;99.90;;;;;;5047541;28;20215;-73
2022/05/22 04:41:25;;;;;;;4.53;1.97;;;12.60;99.90;;;;;;5049513;28;20205;-74
2022/05/22 04:43:51;;;;;;;5.40;2.10;;;12.60;99.90;;;;;;5047327;28;20305;-75
2022/05/22 04:46:20;;;;;;;5.37;1.93;;;12.60;99.90;;;;;;5043596;28;20204;-73
2022/05/22 04:48:47;;;;;;;6.57;3.00;;;12.50;99.90;;;;;;5049730;28;20208;-73
2022/05/22 04:51:22;;;;;;;5.23;2.93;;;12.40;99.90;;;;;;5049104;28;20242;-74
2022/05/22 04:53:50;;;;;;;5.20;2.00;;;12.30;99.90;;;;;;5049029;28;20266;-73
2022/05/22 04:56:24;;;;;;;6.00;2.30;;;12.50;99.90;;;;;;5047946;28;20677;-73
2022/05/22 04:58:51;;;;;;;8.23;2.40;;;12.50;99.90;;;;;;5048776;28;20452;-73
2022/05/22 05:01:40;;;;;;;6.67;2.50;;;12.50;99.90;;;;;;5049445;28;20204;-73
2022/05/22 05:04:06;;;;;;;6.87;2.43;;;12.40;99.90;;;;;;5049537;28;20224;-73
2022/05/22 05:06:35;;;;;;;4.40;1.90;;;12.40;99.90;;;;;;5048927;28;20578;-73
2022/05/22 05:09:03;;;;;;;6.27;2.13;;;12.50;99.90;;;;;;5049004;28;20208;-73
2022/05/22 05:11:31;;;;;;;7.83;3.07;;;12.50;99.90;;;;;;5049133;28;20817;-73
2022/05/22 05:14:02;;;;;;;4.50;2.60;;;12.50;99.90;;;;;;5049672;28;20299;-73
2022/05/22 05:16:40;;;;;;;5.10;2.50;;;12.50;99.90;;;;;;5050123;28;20197;-73
2022/05/22 05:19:09;;;;;;;7.93;2.33;;;12.40;99.90;;;;;;5049927;28;20223;-74
2022/05/22 05:21:40;;;;;;;8.77;2.80;;;12.50;99.90;;;;;;5049586;28;20682;-73
2022/05/22 05:24:07;;;;;;;7.70;2.77;;;12.50;99.90;;;;;;5048396;28;20284;-74
2022/05/22 05:26:38;;;;;;;4.33;2.23;;;12.50;99.90;;;;;;5049644;28;20262;-74
2022/05/22 05:29:05;;;;;;;5.73;2.33;;;12.60;99.90;;;;;;5049014;28;20193;-73
2022/05/22 05:31:32;;;;;;;6.87;2.40;;;12.60;99.90;;;;;;5049526;28;20211;-74
2022/05/22 05:33:59;;;;;;;7.10;2.67;;;12.90;99.90;;;;;;5049530;28;20262;-73
2022/05/22 05:36:48;;;;;;;6.17;2.37;;;12.90;99.90;;;;;;5048751;28;20747;-73
2022/05/22 05:39:14;;;;;;;5.77;2.30;;;13.00;99.90;;;;;;5049233;28;20220;-73
2022/05/22 05:41:42;;;;;;;4.90;2.40;;;12.90;99.90;;;;;;5049181;28;20273;-73
2022/05/22 05:44:15;;;;;;;6.20;2.40;;;12.90;99.90;;;;;;5047864;28;20224;-73
2022/05/22 05:46:46;;;;;;;8.97;2.10;;;13.00;99.90;;;;;;5048405;28;20701;-73
2022/05/22 05:49:13;;;;;;;5.00;2.23;;;12.90;99.90;;;;;;5048813;28;20251;-73
2022/05/22 05:51:57;;;;;;;6.43;2.80;;;12.90;99.90;;;;;;5048927;28;20283;-73
2022/05/22 05:54:24;;;;;;;6.17;2.53;;;12.90;99.90;;;;;;5048816;28;20208;-73
2022/05/22 05:56:54;;;;;;;6.27;2.20;;;12.90;99.90;;;;;;5048481;28;20208;-73
2022/05/22 05:59:21;;;;;;;9.67;2.63;;;12.90;99.90;;;;;;5048882;28;20235;-73
2022/05/22 06:01:48;;;;;;;8.73;3.03;;;12.90;99.90;;;;;;5048916;28;20208;-73
2022/05/22 06:04:14;;;;;;;5.23;2.60;;;12.80;99.90;;;;;;5048805;28;20228;-73
2022/05/22 06:06:41;;;;;;;8.80;2.97;;;12.80;99.90;;;;;;5048786;28;20204;-74
2022/05/22 06:09:08;;;;;;;8.17;3.03;;;12.90;99.90;;;;;;5048548;28;20266;-73
2022/05/22 06:11:45;;;;;;;6.37;2.50;;;12.90;99.90;;;;;;5049004;28;20239;-73
2022/05/22 06:14:13;;;;;;;7.23;3.27;;;12.90;99.90;;;;;;5048503;28;20200;-73
2022/05/22 06:16:40;;;;;;;11.20;4.10;;;12.90;99.90;;;;;;5048507;28;20609;-73
2022/05/22 06:19:07;;;;;;;6.80;3.00;;;12.90;99.90;;;;;;5047724;28;20204;-73
2022/05/22 06:21:33;;;;;;;9.80;2.47;;;12.90;99.90;;;;;;5048573;28;20212;-73
2022/05/22 06:24:00;;;;;;;5.80;2.47;;;13.00;99.90;;;;;;5048328;28;20219;-73
2022/05/22 06:26:27;;;;;;;6.43;2.50;;;13.10;99.90;;;;;;5048694;28;20209;-72
2022/05/22 06:28:53;;;;;;;7.63;2.77;;;13.10;99.90;;;;;;5048362;28;20208;-73
2022/05/22 06:31:28;;;;;;;10.70;2.33;;;13.10;99.90;;;;;;5048510;28;20208;-73
2022/05/22 06:33:55;;;;;;;6.83;2.23;;;13.20;99.90;;;;;;5047896;28;20712;-73
2022/05/22 06:36:32;;;;;;;5.23;2.17;;;13.30;99.90;;;;;;5048666;28;20265;-73
2022/05/22 06:41:52;;;;;;;5.63;2.60;;;13.40;99.90;;;;;;5084885;28;20563;-73
2022/05/22 06:44:19;;;;;;;6.83;2.73;;;13.60;99.90;;;;;;5085046;28;20213;-73
2022/05/22 06:46:45;;;;;;;8.33;2.53;;;13.50;99.90;;;;;;5084498;28;20676;-73
2022/05/22 06:49:12;;;;;;;5.77;2.17;;;13.60;99.90;;;;;;5084865;28;20619;-73
2022/05/22 06:51:39;;;;;;;7.30;2.33;;;13.80;99.90;;;;;;5084740;28;20380;-73
2022/05/22 06:54:05;;;;;;;7.20;2.30;;;13.90;99.90;;;;;;5084979;28;20203;-73
2022/05/22 06:56:32;;;;;;;4.50;2.10;;;14.00;99.90;;;;;;5085061;28;20207;-73
2022/05/22 06:59:00;;;;;;;6.50;1.90;;;14.00;99.90;;;;;;5084794;28;20260;-73
2022/05/22 07:01:27;;;;;;;7.63;1.70;;;14.00;99.90;;;;;;5084997;28;20299;-73
2022/05/22 07:03:53;;;;;;;5.93;1.83;;;14.10;99.90;;;;;;5085018;28;20305;-73
2022/05/22 07:06:22;;;;;;;3.33;1.77;;;14.20;99.90;;;;;;5085104;28;20265;-73
2022/05/22 07:08:48;;;;;;;4.80;1.70;;;14.30;99.90;;;;;;5084376;28;20576;-73
2022/05/22 07:11:39;;;;;;;2.63;1.80;;;14.20;99.90;;;;;;5084825;28;20203;-73
2022/05/22 07:14:09;;;;;;;5.50;1.67;;;14.20;99.90;;;;;;5084627;28;20209;-73
2022/05/22 07:16:39;;;;;;;3.43;1.97;;;14.20;99.90;;;;;;5084635;28;20253;-73
2022/05/22 07:19:08;;;;;;;4.50;1.73;;;14.30;99.90;;;;;;5084471;28;20624;-73
2022/05/22 07:21:35;;;;;;;4.27;1.50;;;14.30;99.90;;;;;;5070081;28;20369;-73
2022/05/22 07:24:01;;;;;;;5.03;2.00;;;14.40;99.90;;;;;;5064020;28;20211;-73
2022/05/22 07:26:29;;;;;;;3.50;1.40;;;14.50;99.90;;;;;;5064102;28;20646;-73
2022/05/22 07:28:58;;;;;;;4.57;1.60;;;14.60;99.90;;;;;;5064109;28;20222;-73
2022/05/22 07:31:27;;;;;;;5.37;1.77;;;14.70;99.90;;;;;;5064149;28;20217;-73
2022/05/22 07:33:54;;;;;;;3.47;1.30;;;14.90;99.90;;;;;;5063824;28;20207;-73
2022/05/22 07:36:21;;;;;;;4.70;1.53;;;15.00;99.90;;;;;;5063730;28;20214;-74
2022/05/22 07:38:48;;;;;;;5.00;1.60;;;15.20;99.90;;;;;;5063674;28;20211;-73
2022/05/22 07:41:33;;;;;;;4.90;1.50;;;15.00;99.90;;;;;;5063296;28;20243;-73
2022/05/22 07:44:00;;;;;;;2.73;1.60;;;15.10;99.90;;;;;;5063621;28;20199;-73
2022/05/22 07:46:29;;;;;;;5.33;1.67;;;15.00;99.90;;;;;;5063553;28;20212;-73
2022/05/22 07:48:56;;;;;;;3.40;1.77;;;15.00;99.90;;;;;;5076264;28;20718;-71
2022/05/22 07:51:22;;;;;;;3.20;2.00;;;14.90;99.90;;;;;;5080462;28;20280;-73
2022/05/22 07:53:51;;;;;;;3.93;1.97;;;14.80;99.90;;;;;;5069992;28;20591;-73
2022/05/22 07:56:22;;;;;;;4.00;1.70;;;14.90;99.90;;;;;;5070363;28;20389;-73
2022/05/22 07:58:49;;;;;;;2.37;1.37;;;15.00;99.90;;;;;;5070086;28;20218;-73
2022/05/22 08:01:31;;;;;;;2.63;1.37;;;15.10;99.90;;;;;;5061519;28;20228;-73
2022/05/22 08:03:58;;;;;;;2.47;1.30;;;15.00;99.90;;;;;;5050102;28;20204;-73
2022/05/22 08:06:24;;;;;;;4.43;1.10;;;14.90;99.90;;;;;;5050345;28;20300;-73
2022/05/22 08:08:51;;;;;;;3.47;1.23;;;15.00;99.90;;;;;;5049588;28;20269;-74
2022/05/22 08:11:24;;;;;;;3.10;1.20;;;15.10;99.90;;;;;;5050129;28;20216;-73
2022/05/22 08:13:51;;;;;;;3.07;1.47;;;15.30;99.90;;;;;;5069735;28;20203;-74
2022/05/22 08:16:32;;;;;;;2.47;1.50;;;15.40;99.90;;;;;;5061545;28;20200;-74
2022/05/22 08:18:59;;;;;;;4.70;1.43;;;15.30;99.90;;;;;;5049857;28;20192;-73
2022/05/22 08:21:29;;;;;;;4.33;1.50;;;15.20;99.90;;;;;;5061954;28;20293;-73
2022/05/22 08:23:55;;;;;;;5.17;1.53;;;15.30;99.90;;;;;;5069319;28;20204;-73
2022/05/22 08:26:24;;;;;;;4.20;1.40;;;15.40;99.90;;;;;;5069925;28;20200;-73
2022/05/22 08:28:51;;;;;;;2.40;1.30;;;15.50;99.90;;;;;;5069604;28;20204;-73
2022/05/22 08:31:24;;;;;;;3.33;1.10;;;15.50;99.90;;;;;;5068800;28;20685;-73
2022/05/22 08:33:52;;;;;;;2.53;1.33;;;15.60;99.90;;;;;;5069325;28;20295;-73
2022/05/22 08:36:21;;;;;;;3.43;1.70;;;15.60;99.90;;;;;;5069690;28;20345;-73
2022/05/22 08:38:48;;;;;;;3.97;1.40;;;15.60;99.90;;;;;;5068451;28;20257;-73
2022/05/22 08:41:33;;;;;;;4.20;1.50;;;15.70;99.90;;;;;;5069164;28;20235;-73
2022/05/22 08:44:07;;;;;;;2.47;1.13;;;15.80;99.90;;;;;;5069216;28;20631;-73
2022/05/22 08:46:36;;;;;;;4.97;1.30;;;15.80;99.90;;;;;;5069026;28;20195;-73
2022/05/22 08:49:12;;;;;;;2.93;1.33;;;15.50;99.90;;;;;;5069628;28;20211;-73
2022/05/22 08:51:42;;;;;;;2.47;1.10;;;15.40;99.90;;;;;;5069497;28;20260;-73
2022/05/22 08:54:19;;;;;;;4.07;1.40;;;15.60;99.90;;;;;;5069206;28;20195;-73
2022/05/22 08:59:37;;;;;;;4.70;1.43;;;15.60;99.90;;;;;;5068051;28;20234;-73
2022/05/22 09:02:33;;;;;;;3.73;1.47;;;15.70;99.90;;;;;;5069444;28;20227;-74
2022/05/22 09:05:06;;;;;;;5.87;1.73;;;15.90;99.90;;;;;;5068091;28;20253;-73
2022/05/22 09:07:41;;;;;;;6.37;1.33;;;15.90;99.90;;;;;;5068948;28;20192;-73
2022/05/22 09:10:10;;;;;;;5.50;1.60;;;16.00;99.90;;;;;;5068745;28;20195;-74
2022/05/22 09:13:12;;;;;;;2.13;1.30;;;15.90;99.90;;;;;;5068844;28;20204;-73
2022/05/22 09:16:22;;;;;;;4.20;1.27;;;15.80;99.90;;;;;;5068058;28;20241;-73
2022/05/22 09:18:56;;;;;;;2.30;1.43;;;16.00;99.90;;;;;;5030023;28;20208;-74
2022/05/22 09:21:32;;;;;;;4.57;1.47;;;16.20;99.90;;;;;;5060741;28;20223;-74
2022/05/22 09:24:07;;;;;;;2.70;1.30;;;16.40;99.90;;;;;;5068442;28;20198;-73
2022/05/22 09:26:43;;;;;;;2.20;0.93;;;16.50;99.90;;;;;;5068649;28;20257;-73
2022/05/22 09:29:24;;;;;;;2.57;1.07;;;16.40;99.90;;;;;;5048621;28;20208;-74
2022/05/22 09:31:57;;;;;;;1.43;0.90;;;16.50;99.90;;;;;;5048540;28;20188;-74
2022/05/22 09:34:31;;;;;;;2.43;1.00;;;16.60;99.90;;;;;;5048606;28;20196;-74
2022/05/22 09:37:12;;;;;;;1.23;1.13;;;16.60;99.90;;;;;;5067208;28;20203;-73
2022/05/22 09:40:09;;;;;;;3.23;0.83;;;16.70;99.90;;;;;;5067546;28;20261;-73
2022/05/22 09:42:47;;;;;;;1.27;0.83;;;16.70;99.90;;;;;;5054943;28;20238;-73
2022/05/22 09:45:26;;;;;;;1.73;1.03;;;16.70;99.90;;;;;;5068212;28;20199;-73
2022/05/22 09:48:21;;;;;;;4.23;1.20;;;16.50;99.90;;;;;;5067834;28;20805;-73
2022/05/22 09:50:56;;;;;;;2.07;1.00;;;16.60;99.90;;;;;;5060713;28;20204;-74
2022/05/22 09:53:35;;;;;;;2.23;1.07;;;16.70;99.90;;;;;;5048078;28;20207;-73
2022/05/22 09:56:25;;;;;;;2.23;1.10;;;16.70;99.90;;;;;;5048029;28;20188;-73
2022/05/22 09:59:06;;;;;;;2.23;1.30;;;16.90;99.90;;;;;;5047758;28;20386;-74
2022/05/22 10:01:34;;;;;;;2.07;1.10;;;17.00;99.90;;;;;;5047728;28;20223;-74
2022/05/22 10:04:13;;;;;;;4.67;1.30;;;17.10;99.90;;;;;;5047928;28;20274;-75
2022/05/22 10:06:47;;;;;;;2.23;0.83;;;17.20;99.90;;;;;;5047396;28;20562;-74
2022/05/22 10:09:25;;;;;;;3.63;1.33;;;17.40;99.90;;;;;;5047404;28;20204;-74
2022/05/22 10:12:06;;;;;;;2.33;1.03;;;17.50;99.90;;;;;;5047601;28;20603;-73
2022/05/22 10:14:44;;;;;;;2.90;1.43;;;17.30;99.90;;;;;;5047082;28;20196;-74
2022/05/22 10:17:24;;;;;;;1.47;1.27;;;17.00;99.90;;;;;;5053021;28;20587;-74
2022/05/22 10:20:03;;;;;;;2.77;1.30;;;16.80;99.90;;;;;;5051901;28;20192;-74
2022/05/22 10:22:42;;;;;;;2.43;1.37;;;17.00;99.90;;;;;;5047564;28;20232;-74
2022/05/22 10:25:25;;;;;;;2.03;1.10;;;17.20;99.90;;;;;;5062151;28;20207;-74
2022/05/22 10:27:58;;;;;;;2.20;1.10;;;17.40;99.90;;;;;;5067147;28;20661;-74
2022/05/22 10:30:33;;;;;;;3.93;1.57;;;17.50;99.90;;;;;;5067343;28;20218;-74
2022/05/22 10:33:10;;;;;;;2.33;1.10;;;17.60;99.90;;;;;;5050104;28;20568;-75
2022/05/22 10:35:45;;;;;;;2.90;1.30;;;17.70;99.90;;;;;;5047354;28;20241;-74
2022/05/22 10:38:20;;;;;;;3.03;1.23;;;18.00;99.90;;;;;;5047241;28;20200;-74
2022/05/22 10:43:40;;;;;;;1.33;0.67;;;18.00;99.90;;;;;;5047277;28;20199;-74
2022/05/22 10:46:16;;;;;;;3.20;1.10;;;18.00;99.90;;;;;;5049866;28;20256;-74
2022/05/22 10:48:58;;;;;;;3.60;2.80;;;17.90;99.90;;;;;;5048899;28;20262;-74
2022/05/22 10:51:32;;;;;;;2.23;1.47;;;18.00;99.90;;;;;;5047625;28;20196;-74
2022/05/22 10:54:00;;;;;;;4.37;0.80;;;18.20;99.90;;;;;;5047340;28;20200;-73
2022/05/22 10:56:32;;;;;;;4.47;1.43;;;18.10;99.90;;;;;;5047667;28;20208;-74
2022/05/22 10:59:01;;;;;;;2.73;1.00;;;18.20;99.90;;;;;;5047622;28;20635;-73
2022/05/22 11:01:32;;;;;;;1.73;1.10;;;18.20;99.90;;;;;;5047031;28;20571;-74
2022/05/22 11:04:09;;;;;;;3.10;1.97;;;18.10;99.90;;;;;;5047219;28;20609;-74
2022/05/22 11:06:42;;;;;;;2.07;1.20;;;18.10;99.90;;;;;;5047178;28;20204;-74
2022/05/22 11:09:14;;;;;;;3.77;2.23;;;18.20;99.90;;;;;;5047018;28;20238;-74
2022/05/22 11:11:42;;;;;;;3.17;1.30;;;18.20;99.90;;;;;;5047048;28;20242;-73
2022/05/22 11:14:18;;;;;;;2.70;1.20;;;18.30;99.90;;;;;;5047432;28;20206;-73
2022/05/22 11:16:49;;;;;;;4.20;1.20;;;18.10;99.90;;;;;;5048576;28;20408;-73
2022/05/22 11:19:24;;;;;;;3.50;1.13;;;18.00;99.90;;;;;;5066346;28;20795;-74
2022/05/22 11:22:06;;;;;;;2.50;1.00;;;18.00;99.90;;;;;;5066327;28;20329;-73
2022/05/22 11:25:03;;;;;;;2.03;1.17;;;18.10;99.90;;;;;;5066560;28;20208;-73
2022/05/22 11:27:44;;;;;;;2.23;1.20;;;18.20;99.90;;;;;;5061420;28;20242;-73
2022/05/22 11:30:24;;;;;;;1.40;0.90;;;18.50;99.90;;;;;;5070768;28;20196;-73
2022/05/22 11:33:15;;;;;;;2.20;0.90;;;18.80;99.90;;;;;;5070722;28;20293;-73
2022/05/22 11:35:48;;;;;;;1.57;1.10;;;18.80;99.90;;;;;;5069600;28;20208;-73
2022/05/22 11:38:42;;;;;;;1.07;0.80;;;18.80;99.90;;;;;;5070336;28;20200;-73
2022/05/22 11:41:20;;;;;;;3.37;1.30;;;18.70;99.90;;;;;;5035771;28;20232;-73
2022/05/22 11:44:00;;;;;;;4.30;1.13;;;18.70;99.90;;;;;;5054126;28;20196;-73
2022/05/22 11:46:54;;;;;;;2.23;1.00;;;18.90;99.90;;;;;;5050161;28;20663;-73
2022/05/22 11:49:38;;;;;;;2.83;1.10;;;19.30;99.90;;;;;;5050247;28;20197;-74
2022/05/22 11:55:19;;;;;;;1.43;1.00;;;19.40;99.90;;;;;;5049337;28;20549;-73
2022/05/22 11:58:26;;;;;;;2.23;0.97;;;19.40;99.90;;;;;;5050143;28;20196;-74
2022/05/22 12:04:54;;;;;;;2.27;1.00;;;19.80;99.90;;;;;;5027247;28;20255;-73
2022/05/22 12:07:49;;;;;;;4.37;0.97;;;19.90;99.90;;;;;;5027112;28;20556;-74
2022/05/22 12:10:26;;;;;;;2.77;1.00;;;20.10;98.70;;;;;;5027242;28;20193;-73
2022/05/22 12:13:00;;;;;;;1.60;1.00;;;19.80;98.40;;;;;;5027242;28;20204;-73
2022/05/22 12:15:37;;;;;;;1.87;0.80;;;19.80;99.20;;;;;;5015536;28;20206;-73
2022/05/22 12:18:28;;;;;;;5.10;1.10;;;20.20;99.50;;;;;;5025098;28;20217;-74
2022/05/22 12:21:16;;;;;;;1.13;0.80;;;20.40;98.90;;;;;;5027027;28;20201;-74
2022/05/22 12:23:52;;;;;;;1.10;0.80;;;20.00;96.90;;;;;;4994709;28;20282;-73
2022/05/22 12:26:50;;;;;;;2.07;1.10;;;19.80;97.30;;;;;;5007168;28;20297;-73
2022/05/22 12:29:25;;;;;;;2.40;1.00;;;19.90;97.20;;;;;;5041585;28;20212;-73
2022/05/22 12:31:56;;;;;;;2.20;0.90;;;19.80;97.30;;;;;;5049512;28;20951;-73
2022/05/22 12:34:37;;;;;;;4.00;0.83;;;19.80;97.80;;;;;;5050030;28;20208;-73
2022/05/22 12:37:09;;;;;;;2.70;0.77;;;19.80;97.60;;;;;;5049670;28;20245;-73
2022/05/22 12:39:47;;;;;;;1.23;0.77;;;20.00;98.00;;;;;;5062723;28;20278;-73
2022/05/22 12:42:19;;;;;;;1.50;1.00;;;20.00;98.20;;;;;;5069769;28;20227;-73
2022/05/22 12:44:45;;;;;;;1.83;0.90;;;20.00;98.30;;;;;;5069228;28;20646;-73
2022/05/22 12:47:33;;;;;;;2.23;1.00;;;20.00;99.00;;;;;;5063391;28;20250;-74
2022/05/22 12:50:01;;;;;;;0.67;0.67;;;20.00;98.10;;;;;;5049511;28;20253;-74
2022/05/22 12:52:30;;;;;;;2.00;0.80;;;20.20;96.90;;;;;;5049422;28;20224;-73
2022/05/22 12:54:59;;;;;;;1.50;0.80;;;20.50;96.40;;;;;;5048985;28;20227;-73
2022/05/22 12:57:26;;;;;;;2.03;1.00;;;20.70;96.00;;;;;;5049243;28;20262;-73
2022/05/22 12:59:55;;;;;;;2.43;1.07;;;20.70;95.70;;;;;;5048678;28;20228;-73
2022/05/22 13:02:32;;;;;;;1.47;0.80;;;20.80;96.10;;;;;;5049100;28;20235;-73
2022/05/22 13:05:02;;;;;;;1.07;0.77;;;21.20;96.70;;;;;;5056363;28;20278;-73
2022/05/22 13:07:34;;;;;;;2.50;0.70;;;21.70;96.90;;;;;;5064671;28;20595;-74
2022/05/22 13:10:12;;;;;;;5.50;1.20;;;22.00;95.00;;;;;;5068634;28;20196;-74
2022/05/22 13:12:39;;;;;;;1.37;1.00;;;22.20;94.50;;;;;;5068577;28;20227;-74
2022/05/22 13:15:14;;;;;;;0.97;0.80;;;22.20;94.30;;;;;;5068762;28;20264;-74
2022/05/22 13:17:50;;;;;;;3.73;1.17;;;22.20;94.80;;;;;;5054548;28;20204;-73
2022/05/22 13:20:30;;;;;;;4.20;1.30;;;22.10;94.10;;;;;;5052032;28;20196;-73
2022/05/22 13:23:07;;;;;;;1.23;0.90;;;21.90;94.50;;;;;;5068598;28;20418;-73
2022/05/22 13:25:46;;;;;;;2.47;0.97;;;21.60;93.80;;;;;;5068200;28;20814;-73
2022/05/22 13:28:25;;;;;;;2.97;1.10;;;21.40;94.80;;;;;;5068614;28;20192;-73
2022/05/22 13:30:55;;;;;;;3.63;0.83;;;21.70;95.90;;;;;;5068407;28;20626;-73
2022/05/22 13:33:24;;;;;;;3.43;1.13;;;21.70;95.50;;;;;;5067808;28;20206;-74